createdAt,value
2017-07-27T00:00:28.180Z,99.90
2017-07-27T00:02:55.858Z,99.90
2017-07-27T00:05:23.505Z,99.90
2017-07-27T00:07:51.141Z,99.90
2017-07-27T00:10:18.816Z,99.90
2017-07-27T00:12:47.221Z,99.90
2017-07-27T00:15:14.856Z,99.90
2017-07-27T00:17:42.519Z,99.90
2017-07-27T00:20:10.151Z,99.90
2017-07-27T00:22:37.796Z,99.90
2017-07-27T00:25:05.480Z,99.90
2017-07-27T00:27:33.117Z,99.90
2017-07-27T00:30:00.757Z,99.90
2017-07-27T00:32:28.441Z,99.90
2017-07-27T00:34:56.080Z,99.90
2017-07-27T00:37:23.721Z,99.90
2017-07-27T00:39:51.392Z,99.90
2017-07-27T00:42:19.796Z,99.90
2017-07-27T00:44:47.431Z,99.90
2017-07-27T00:47:15.112Z,99.90
2017-07-27T00:49:42.755Z,99.90
2017-07-27T00:52:10.388Z,99.90
2017-07-27T00:54:38.049Z,99.90
2017-07-27T00:57:05.687Z,99.90
2017-07-27T00:59:33.333Z,99.90
2017-07-27T01:02:01.006Z,99.90
2017-07-27T01:04:28.653Z,99.90
2017-07-27T01:06:56.283Z,99.90
2017-07-27T01:09:23.956Z,99.90
2017-07-27T01:11:51.603Z,99.90
2017-07-27T01:14:19.237Z,99.90
2017-07-27T01:16:46.909Z,99.90
2017-07-27T01:19:15.321Z,99.90
2017-07-27T01:21:42.968Z,99.90
2017-07-27T01:24:10.639Z,99.90
2017-07-27T01:26:38.284Z,99.90
2017-07-27T01:29:05.926Z,99.90
2017-07-27T01:31:33.601Z,99.90
2017-07-27T01:34:02.008Z,99.90
2017-07-27T01:36:29.656Z,99.90
2017-07-27T01:38:57.328Z,99.90
2017-07-27T01:41:24.972Z,99.90
2017-07-27T01:43:52.606Z,99.90
2017-07-27T01:46:20.285Z,99.90
2017-07-27T01:48:47.937Z,99.90
2017-07-27T01:51:15.570Z,99.90
2017-07-27T01:53:43.257Z,99.90
2017-07-27T01:56:11.669Z,99.90
2017-07-27T01:58:39.305Z,99.90
2017-07-27T02:01:06.984Z,99.90
2017-07-27T02:03:34.620Z,99.90
2017-07-27T02:06:02.261Z,99.90
2017-07-27T02:08:29.924Z,99.90
2017-07-27T02:10:57.583Z,99.90
2017-07-27T02:13:25.225Z,99.90
2017-07-27T02:15:52.908Z,99.90
2017-07-27T02:18:20.549Z,99.90
2017-07-27T02:20:48.191Z,99.90
2017-07-27T02:23:15.867Z,99.90
2017-07-27T02:25:43.507Z,99.90
2017-07-27T02:28:11.140Z,99.90
2017-07-27T02:30:38.818Z,99.90
2017-07-27T02:33:06.453Z,99.90
2017-07-27T02:35:34.102Z,99.90
2017-07-27T02:38:01.799Z,99.90
2017-07-27T02:40:29.436Z,99.90
2017-07-27T02:42:57.072Z,99.90
2017-07-27T02:45:24.757Z,99.90
2017-07-27T02:47:53.157Z,99.90
2017-07-27T02:50:20.788Z,99.90
2017-07-27T02:52:48.465Z,99.90
2017-07-27T02:55:16.105Z,99.90
2017-07-27T02:57:43.740Z,99.90
2017-07-27T03:00:11.407Z,99.90
2017-07-27T03:02:39.043Z,99.90
2017-07-27T03:05:06.679Z,99.90
2017-07-27T03:07:34.352Z,99.90
2017-07-27T03:10:01.986Z,99.90
2017-07-27T03:12:29.620Z,99.90
2017-07-27T03:14:57.297Z,99.90
2017-07-27T03:17:24.927Z,99.90
2017-07-27T03:19:52.568Z,99.90
2017-07-27T03:22:20.237Z,99.90
2017-07-27T03:24:47.873Z,99.90
2017-07-27T03:27:15.521Z,99.90
2017-07-27T03:29:43.197Z,99.90
2017-07-27T03:32:11.610Z,99.90
2017-07-27T03:34:39.257Z,99.90
2017-07-27T03:37:06.926Z,99.90
2017-07-27T03:39:34.570Z,99.90
2017-07-27T03:42:02.210Z,99.90
2017-07-27T03:44:29.888Z,99.90
2017-07-27T03:46:57.539Z,99.90
2017-07-27T03:49:25.174Z,99.90
2017-07-27T03:51:52.857Z,99.90
2017-07-27T03:54:20.487Z,99.90
2017-07-27T03:56:48.897Z,99.90
2017-07-27T03:59:16.576Z,99.90
2017-07-27T04:01:44.222Z,99.90
2017-07-27T04:04:11.855Z,99.90
2017-07-27T04:06:39.515Z,99.90
2017-07-27T04:09:07.139Z,99.90
2017-07-27T04:11:34.783Z,99.90
2017-07-27T04:14:02.457Z,99.90
2017-07-27T04:16:30.091Z,99.90
2017-07-27T04:18:57.763Z,99.90
2017-07-27T04:21:25.436Z,99.90
2017-07-27T04:23:53.088Z,99.90
2017-07-27T04:26:20.724Z,99.90
2017-07-27T04:28:48.387Z,99.90
2017-07-27T04:31:16.032Z,99.90
2017-07-27T04:33:43.673Z,99.90
2017-07-27T04:36:11.339Z,99.90
2017-07-27T04:38:38.992Z,99.90
2017-07-27T04:41:06.641Z,99.90
2017-07-27T04:43:34.317Z,99.90
2017-07-27T04:46:01.970Z,99.90
2017-07-27T04:48:29.603Z,99.90
2017-07-27T04:50:57.292Z,99.90
2017-07-27T04:53:24.923Z,99.90
2017-07-27T04:55:53.320Z,99.90
2017-07-27T04:58:20.992Z,99.90
2017-07-27T05:00:48.637Z,99.90
2017-07-27T05:03:16.300Z,99.90
2017-07-27T05:05:43.983Z,99.90
2017-07-27T05:08:12.402Z,99.90
2017-07-27T05:10:40.041Z,99.90
2017-07-27T05:13:07.720Z,99.90
2017-07-27T05:15:35.363Z,99.90
2017-07-27T05:18:03.003Z,99.90
2017-07-27T05:20:30.685Z,99.90
2017-07-27T05:22:59.096Z,99.90
2017-07-27T05:25:26.747Z,99.90
2017-07-27T05:27:54.420Z,99.90
2017-07-27T05:30:22.074Z,99.90
2017-07-27T05:32:49.702Z,99.90
2017-07-27T05:35:17.377Z,99.90
2017-07-27T05:37:45.797Z,99.90
2017-07-27T05:40:13.441Z,99.90
2017-07-27T05:42:41.116Z,99.90
2017-07-27T05:45:08.769Z,99.90
2017-07-27T05:47:37.182Z,99.90
2017-07-27T05:50:04.867Z,99.90
2017-07-27T05:52:32.509Z,96.40
2017-07-27T05:55:00.147Z,97.70
2017-07-27T05:57:27.833Z,96.70
2017-07-27T05:59:56.250Z,90.00
2017-07-27T06:02:23.905Z,90.00
2017-07-27T06:04:51.572Z,90.70
2017-07-27T06:07:19.232Z,92.40
2017-07-27T06:09:47.637Z,93.00
2017-07-27T06:12:15.307Z,93.00
2017-07-27T06:14:42.953Z,95.50
2017-07-27T06:17:10.597Z,92.40
2017-07-27T06:19:38.282Z,92.10
2017-07-27T06:22:05.933Z,94.00
2017-07-27T06:24:34.339Z,97.90
2017-07-27T06:27:02.015Z,97.90
2017-07-27T06:29:29.668Z,92.30
2017-07-27T06:31:57.325Z,91.90
2017-07-27T06:34:24.991Z,91.30
2017-07-27T06:36:53.389Z,94.30
2017-07-27T06:39:21.039Z,94.40
2017-07-27T06:41:48.712Z,90.30
2017-07-27T06:44:16.355Z,88.50
2017-07-27T06:46:43.991Z,89.70
2017-07-27T06:49:11.643Z,88.30
2017-07-27T06:51:39.261Z,91.60
2017-07-27T06:54:07.682Z,75.30
2017-07-27T06:56:35.328Z,75.20
2017-07-27T06:59:02.954Z,69.90
2017-07-27T07:01:30.557Z,62.50
2017-07-27T07:03:58.977Z,60.30
2017-07-27T07:06:26.586Z,60.60
2017-07-27T07:08:54.960Z,53.00
2017-07-27T07:11:22.606Z,52.90
2017-07-27T07:13:50.223Z,39.20
2017-07-27T07:16:17.834Z,46.00
2017-07-27T07:18:45.472Z,46.50
2017-07-27T07:21:13.074Z,46.50
2017-07-27T07:23:41.461Z,39.70
2017-07-27T07:26:09.092Z,39.70
2017-07-27T07:28:36.709Z,40.40
2017-07-27T07:31:04.311Z,37.40
2017-07-27T07:33:31.939Z,37.10
2017-07-27T07:35:59.565Z,33.80
2017-07-27T07:38:27.944Z,33.20
2017-07-27T07:40:55.602Z,33.20
2017-07-27T07:43:23.212Z,38.50
2017-07-27T07:45:51.580Z,31.90
2017-07-27T07:48:19.997Z,31.80
2017-07-27T07:50:47.604Z,31.80
2017-07-27T07:53:15.225Z,35.30
2017-07-27T07:55:42.876Z,34.60
2017-07-27T07:58:10.487Z,30.40
2017-07-27T08:00:38.103Z,31.00
2017-07-27T08:03:05.749Z,27.40
2017-07-27T08:05:33.370Z,27.50
2017-07-27T08:08:01.757Z,28.00
2017-07-27T08:10:29.398Z,27.90
2017-07-27T08:12:57.018Z,28.40
2017-07-27T08:15:25.396Z,31.90
2017-07-27T08:17:53.043Z,31.60
2017-07-27T08:20:21.410Z,28.40
2017-07-27T08:22:49.022Z,28.40
2017-07-27T08:25:16.669Z,28.10
2017-07-27T08:27:44.292Z,31.10
2017-07-27T08:30:11.909Z,30.50
2017-07-27T08:32:39.569Z,32.80
2017-07-27T08:35:07.180Z,31.30
2017-07-27T08:37:35.577Z,30.20
2017-07-27T08:40:03.209Z,30.20
2017-07-27T08:42:30.820Z,31.10
2017-07-27T08:44:58.433Z,30.70
2017-07-27T08:47:26.081Z,33.10
2017-07-27T08:49:53.685Z,26.80
2017-07-27T08:52:21.298Z,25.60
2017-07-27T08:54:48.954Z,26.90
2017-07-27T08:57:17.332Z,30.30
2017-07-27T08:59:45.709Z,28.20
2017-07-27T09:02:13.340Z,28.30
2017-07-27T09:04:41.717Z,30.70
2017-07-27T09:07:09.329Z,30.70
2017-07-27T09:09:37.741Z,28.00
2017-07-27T09:12:05.363Z,28.50
2017-07-27T09:14:32.989Z,25.90
2017-07-27T09:17:01.388Z,20.40
2017-07-27T09:19:29.002Z,19.80
2017-07-27T09:21:56.604Z,19.80
2017-07-27T09:24:24.244Z,22.20
2017-07-27T09:26:51.853Z,25.70
2017-07-27T09:29:19.473Z,24.30
2017-07-27T09:31:47.111Z,19.10
2017-07-27T09:34:14.715Z,21.30
2017-07-27T09:36:42.316Z,22.50
2017-07-27T09:39:09.955Z,22.00
2017-07-27T09:41:37.564Z,25.00
2017-07-27T09:44:05.160Z,24.60
2017-07-27T09:46:33.568Z,25.60
2017-07-27T09:49:01.184Z,25.80
2017-07-27T09:51:29.557Z,22.80
2017-07-27T09:53:57.184Z,22.80
2017-07-27T09:56:25.548Z,19.20
2017-07-27T09:58:53.287Z,19.10
2017-07-27T10:01:21.736Z,21.10
2017-07-27T10:03:49.409Z,20.40
2017-07-27T10:06:17.792Z,20.30
2017-07-27T10:08:45.431Z,20.20
2017-07-27T10:11:13.029Z,22.10
2017-07-27T10:13:40.645Z,21.40
2017-07-27T10:16:08.291Z,23.10
2017-07-27T10:18:35.912Z,24.10
2017-07-27T10:21:03.520Z,24.70
2017-07-27T10:23:31.169Z,30.80
2017-07-27T10:25:58.782Z,32.00
2017-07-27T10:28:26.447Z,27.70
2017-07-27T10:30:54.089Z,27.40
2017-07-27T10:33:21.717Z,25.00
2017-07-27T10:35:49.322Z,27.30
2017-07-27T10:38:17.047Z,27.30
2017-07-27T10:40:44.671Z,28.70
2017-07-27T10:43:12.277Z,30.90
2017-07-27T10:45:40.679Z,30.90
2017-07-27T10:48:08.275Z,30.90
2017-07-27T10:50:35.884Z,35.50
2017-07-27T10:53:03.849Z,37.50
2017-07-27T10:55:31.473Z,34.70
2017-07-27T10:57:59.085Z,38.20
2017-07-27T11:00:26.748Z,37.50
2017-07-27T11:02:54.369Z,39.70
2017-07-27T11:05:21.985Z,36.00
2017-07-27T11:07:49.625Z,34.90
2017-07-27T11:10:17.231Z,42.70
2017-07-27T11:12:44.837Z,43.20
2017-07-27T11:15:13.245Z,38.70
2017-07-27T11:17:40.862Z,38.60
2017-07-27T11:20:09.254Z,40.40
2017-07-27T11:22:36.907Z,40.10
2017-07-27T11:25:04.523Z,40.30
2017-07-27T11:27:32.144Z,48.70
2017-07-27T11:29:59.801Z,48.70
2017-07-27T11:32:28.189Z,52.00
2017-07-27T11:34:55.804Z,51.90
2017-07-27T11:37:23.439Z,49.30
2017-07-27T11:39:51.061Z,53.30
2017-07-27T11:42:18.678Z,52.10
2017-07-27T11:44:46.318Z,52.60
2017-07-27T11:47:13.935Z,53.40
2017-07-27T11:49:42.316Z,49.40
2017-07-27T11:52:09.970Z,48.80
2017-07-27T11:54:37.601Z,49.80
2017-07-27T11:57:05.236Z,55.00
2017-07-27T11:59:32.901Z,54.80
2017-07-27T12:02:00.513Z,58.20
2017-07-27T12:04:28.127Z,65.30
2017-07-27T12:06:55.773Z,65.90
2017-07-27T12:09:23.397Z,72.90
2017-07-27T12:11:51.055Z,72.50
2017-07-27T12:14:18.706Z,72.10
2017-07-27T12:16:46.347Z,75.70
2017-07-27T12:19:13.999Z,77.90
2017-07-27T12:21:41.618Z,81.10
2017-07-27T12:24:10.038Z,82.50
2017-07-27T12:26:37.657Z,82.30
2017-07-27T12:29:05.290Z,77.30
2017-07-27T12:31:32.937Z,74.90
2017-07-27T12:34:00.549Z,80.80
2017-07-27T12:36:28.211Z,77.80
2017-07-27T12:38:55.853Z,76.30
2017-07-27T12:41:24.248Z,83.00
2017-07-27T12:43:51.900Z,82.90
2017-07-27T12:46:19.533Z,79.60
2017-07-27T12:48:47.194Z,83.10
2017-07-27T12:51:14.804Z,79.30
2017-07-27T12:53:42.523Z,79.90
2017-07-27T12:56:10.207Z,83.90
2017-07-27T12:58:37.850Z,78.00
2017-07-27T13:01:06.254Z,79.90
2017-07-27T13:03:33.873Z,79.80
2017-07-27T13:06:01.492Z,80.00
2017-07-27T13:08:29.907Z,82.50
2017-07-27T13:10:57.518Z,82.40
2017-07-27T13:13:25.180Z,83.10
2017-07-27T13:15:52.849Z,84.50
2017-07-27T13:18:20.476Z,87.50
2017-07-27T13:20:48.139Z,88.20
2017-07-27T13:23:15.780Z,87.40
2017-07-27T13:25:43.424Z,85.20
2017-07-27T13:28:11.039Z,87.00
2017-07-27T13:30:38.649Z,80.00
2017-07-27T13:33:06.290Z,79.50
2017-07-27T13:35:33.898Z,80.30
2017-07-27T13:38:01.533Z,77.10
2017-07-27T13:40:29.149Z,76.00
2017-07-27T13:42:56.781Z,75.10
2017-07-27T13:45:24.416Z,76.00
2017-07-27T13:47:52.031Z,69.10
2017-07-27T13:50:19.684Z,68.70
2017-07-27T13:52:47.305Z,69.90
2017-07-27T13:55:15.689Z,76.20
2017-07-27T13:57:43.318Z,76.00
2017-07-27T14:00:11.688Z,75.80
2017-07-27T14:02:39.339Z,75.90
2017-07-27T14:05:06.958Z,78.50
2017-07-27T14:07:35.339Z,73.00
2017-07-27T14:10:03.779Z,70.40
2017-07-27T14:12:31.407Z,70.30
2017-07-27T14:14:59.066Z,69.40
2017-07-27T14:17:26.676Z,68.70
2017-07-27T14:19:54.286Z,70.90
2017-07-27T14:22:22.708Z,72.20
2017-07-27T14:24:50.328Z,72.10
2017-07-27T14:27:17.976Z,71.70
2017-07-27T14:29:45.613Z,72.20
2017-07-27T14:32:13.230Z,71.40
2017-07-27T14:34:40.893Z,69.30
2017-07-27T14:37:08.518Z,70.20
2017-07-27T14:39:36.924Z,75.00
2017-07-27T14:42:04.533Z,75.10
2017-07-27T14:44:32.182Z,69.70
2017-07-27T14:47:00.593Z,70.00
2017-07-27T14:49:28.205Z,69.90
2017-07-27T14:51:55.839Z,69.00
2017-07-27T14:54:24.204Z,69.60
2017-07-27T14:56:52.575Z,71.40
2017-07-27T14:59:20.203Z,71.20
2017-07-27T15:01:48.575Z,74.00
2017-07-27T15:04:17.035Z,74.70
2017-07-27T15:06:44.681Z,74.40
2017-07-27T15:09:13.052Z,70.90
2017-07-27T15:11:40.693Z,70.90
2017-07-27T15:14:08.316Z,65.90
2017-07-27T15:16:35.959Z,65.10
2017-07-27T15:19:03.595Z,65.50
2017-07-27T15:21:31.223Z,64.20
2017-07-27T15:23:58.892Z,63.60
2017-07-27T15:26:26.521Z,63.10
2017-07-27T15:28:54.157Z,59.20
2017-07-27T15:31:21.765Z,59.30
2017-07-27T15:33:49.378Z,63.50
2017-07-27T15:36:17.011Z,60.90
2017-07-27T15:38:44.628Z,65.00
2017-07-27T15:41:12.273Z,65.40
2017-07-27T15:43:39.880Z,68.00
2017-07-27T15:46:07.486Z,68.30
2017-07-27T15:48:35.129Z,67.60
2017-07-27T15:51:02.755Z,67.50
2017-07-27T15:53:30.411Z,68.70
2017-07-27T15:55:58.016Z,69.30
2017-07-27T15:58:26.398Z,67.70
2017-07-27T16:00:54.031Z,67.60
2017-07-27T16:03:22.422Z,72.10
2017-07-27T16:05:50.702Z,72.10
2017-07-27T16:08:18.307Z,70.80
2017-07-27T16:10:46.696Z,68.70
2017-07-27T16:13:14.327Z,68.70
2017-07-27T16:15:41.946Z,69.40
2017-07-27T16:18:10.377Z,70.30
2017-07-27T16:20:37.983Z,69.70
2017-07-27T16:23:05.604Z,72.70
2017-07-27T16:25:33.245Z,72.30
2017-07-27T16:28:00.877Z,69.30
2017-07-27T16:30:28.539Z,68.90
2017-07-27T16:32:56.154Z,69.10
2017-07-27T16:35:23.819Z,73.60
2017-07-27T16:37:51.481Z,74.70
2017-07-27T16:40:19.084Z,74.30
2017-07-27T16:42:46.760Z,75.20
2017-07-27T16:45:14.387Z,77.90
2017-07-27T16:47:42.004Z,78.80
2017-07-27T16:50:09.645Z,78.00
2017-07-27T16:52:37.251Z,79.60
2017-07-27T16:55:04.969Z,80.30
2017-07-27T16:57:32.579Z,80.90
2017-07-27T17:00:00.200Z,80.70
2017-07-27T17:02:27.853Z,81.20
2017-07-27T17:04:55.465Z,79.00
2017-07-27T17:07:23.104Z,81.00
2017-07-27T17:09:51.049Z,82.40
2017-07-27T17:12:18.734Z,85.90
2017-07-27T17:14:46.402Z,84.50
2017-07-27T17:17:14.044Z,84.80
2017-07-27T17:19:41.716Z,88.30
2017-07-27T17:22:09.396Z,91.10
2017-07-27T17:24:37.075Z,92.60
2017-07-27T17:27:06.674Z,90.90
2017-07-27T17:29:34.468Z,93.20
2017-07-27T17:32:02.190Z,96.60
2017-07-27T17:34:29.824Z,95.60
2017-07-27T17:36:57.461Z,96.50
2017-07-27T17:39:25.123Z,96.40
2017-07-27T17:41:52.747Z,97.30
2017-07-27T17:44:20.970Z,98.10
2017-07-27T17:46:48.633Z,99.90
2017-07-27T17:49:17.005Z,99.90
2017-07-27T17:51:45.513Z,96.20
2017-07-27T17:54:13.178Z,96.20
2017-07-27T17:56:40.856Z,98.30
2017-07-27T17:59:08.499Z,97.30
2017-07-27T18:01:36.131Z,99.20
2017-07-27T18:04:03.784Z,99.90
2017-07-27T18:06:31.464Z,99.90
2017-07-27T18:09:00.046Z,99.90
2017-07-27T18:11:27.762Z,99.90
2017-07-27T18:13:55.395Z,99.90
2017-07-27T18:16:23.100Z,99.90
2017-07-27T18:18:50.727Z,99.90
2017-07-27T18:21:18.397Z,99.90
2017-07-27T18:23:46.023Z,99.90
2017-07-27T18:26:14.408Z,99.90
2017-07-27T18:28:42.096Z,99.90
2017-07-27T18:31:09.740Z,99.40
2017-07-27T18:33:37.417Z,99.90
2017-07-27T18:36:05.075Z,99.90
2017-07-27T18:38:32.725Z,99.90
2017-07-27T18:41:00.384Z,99.90
2017-07-27T18:43:28.032Z,96.50
2017-07-27T18:45:55.720Z,97.80
2017-07-27T18:48:23.364Z,99.40
2017-07-27T18:50:51.033Z,99.90
2017-07-27T18:53:19.456Z,99.60
2017-07-27T18:55:47.184Z,99.00
2017-07-27T18:58:15.537Z,99.90
2017-07-27T19:00:43.679Z,99.90
2017-07-27T19:03:12.348Z,99.90
2017-07-27T19:05:40.220Z,99.90
2017-07-27T19:08:08.758Z,99.90
2017-07-27T19:10:37.763Z,99.90
2017-07-27T19:13:05.403Z,99.90
2017-07-27T19:15:34.253Z,99.90
2017-07-27T19:18:01.981Z,99.90
2017-07-27T19:20:29.669Z,99.90
2017-07-27T19:22:57.380Z,99.90
2017-07-27T19:25:25.029Z,99.90
2017-07-27T19:27:52.658Z,99.90
2017-07-27T19:30:20.323Z,99.90
2017-07-27T19:32:47.969Z,99.90
2017-07-27T19:35:15.756Z,99.90
2017-07-27T19:37:44.268Z,99.90
2017-07-27T19:40:11.925Z,99.90
2017-07-27T19:42:39.593Z,99.90
2017-07-27T19:45:07.232Z,99.90
2017-07-27T19:47:34.893Z,99.90
2017-07-27T19:50:02.825Z,99.90
2017-07-27T19:52:30.509Z,99.90
2017-07-27T19:54:58.168Z,99.90
2017-07-27T19:57:25.807Z,99.90
2017-07-27T19:59:53.502Z,99.90
2017-07-27T20:02:21.147Z,99.90
2017-07-27T20:04:48.767Z,99.90
2017-07-27T20:07:16.415Z,99.90
2017-07-27T20:09:44.043Z,99.90
2017-07-27T20:12:11.728Z,99.90
2017-07-27T20:14:39.347Z,99.90
2017-07-27T20:17:06.981Z,99.90
2017-07-27T20:19:34.648Z,99.90
2017-07-27T20:22:02.279Z,99.90
2017-07-27T20:24:30.475Z,99.90
2017-07-27T20:26:58.377Z,99.90
2017-07-27T20:29:26.820Z,99.90
2017-07-27T20:31:54.477Z,99.90
2017-07-27T20:34:24.065Z,99.90
2017-07-27T20:36:51.723Z,99.90
2017-07-27T20:39:20.112Z,99.90
2017-07-27T20:41:47.740Z,99.90
2017-07-27T20:44:17.110Z,99.90
2017-07-27T20:46:45.512Z,99.90
2017-07-27T20:49:13.171Z,99.90
2017-07-27T20:51:40.791Z,99.90
2017-07-27T20:54:09.014Z,99.90
2017-07-27T20:56:36.884Z,99.90
2017-07-27T20:59:06.468Z,99.90
2017-07-27T21:01:35.465Z,99.90
2017-07-27T21:04:03.910Z,99.90
2017-07-27T21:06:31.541Z,99.90
2017-07-27T21:08:59.514Z,99.90
2017-07-27T21:11:28.695Z,99.90
2017-07-27T21:13:58.056Z,99.90
2017-07-27T21:16:27.836Z,99.90
2017-07-27T21:18:58.867Z,99.90
2017-07-27T21:21:32.677Z,99.90
2017-07-27T21:24:03.400Z,99.90
2017-07-27T21:26:31.077Z,99.90
2017-07-27T21:28:59.481Z,99.90
2017-07-27T21:31:27.112Z,99.90
2017-07-27T21:33:57.027Z,99.90
2017-07-27T21:36:27.295Z,99.90
2017-07-27T21:38:55.723Z,99.90
2017-07-27T21:41:23.371Z,99.90
2017-07-27T21:43:51.005Z,99.90
2017-07-27T21:46:20.188Z,99.90
2017-07-27T21:48:50.953Z,99.90
2017-07-27T21:51:18.633Z,99.90
2017-07-27T21:53:46.256Z,99.90
2017-07-27T21:56:18.633Z,99.90
2017-07-27T21:58:47.733Z,99.90
2017-07-27T22:01:15.373Z,99.90
2017-07-27T22:03:43.041Z,99.90
2017-07-27T22:06:10.697Z,99.90
2017-07-27T22:08:38.337Z,99.90
2017-07-27T22:11:05.993Z,99.90
2017-07-27T22:13:33.686Z,99.90
2017-07-27T22:16:01.380Z,99.90
2017-07-27T22:18:28.998Z,99.90
2017-07-27T22:20:56.633Z,99.90
2017-07-27T22:23:24.300Z,99.90
2017-07-27T22:25:54.171Z,99.90
2017-07-27T22:30:54.717Z,99.90
2017-07-27T22:33:22.397Z,99.90
2017-07-27T22:35:50.783Z,99.90
2017-07-27T22:38:18.412Z,99.90
2017-07-27T22:40:46.841Z,99.90
2017-07-27T22:43:14.472Z,99.90
2017-07-27T22:45:42.149Z,99.90
2017-07-27T22:48:09.790Z,99.90
2017-07-27T22:50:37.424Z,99.90
2017-07-27T22:53:05.100Z,99.90
2017-07-27T22:55:32.732Z,99.90
2017-07-27T22:58:00.497Z,99.90
2017-07-27T23:00:28.136Z,99.90
2017-07-27T23:02:55.780Z,99.90
2017-07-27T23:05:23.454Z,99.90
2017-07-27T23:07:51.905Z,99.90
2017-07-27T23:10:19.582Z,99.90
2017-07-27T23:12:47.223Z,99.90
2017-07-27T23:15:14.852Z,99.90
2017-07-27T23:17:43.272Z,99.90
2017-07-27T23:20:10.896Z,99.90
2017-07-27T23:22:38.602Z,99.90
2017-07-27T23:25:06.993Z,99.90
2017-07-27T23:27:34.625Z,99.90
2017-07-27T23:30:03.061Z,99.90
2017-07-27T23:32:30.684Z,99.90
2017-07-27T23:34:58.345Z,99.90
2017-07-27T23:37:26.317Z,98.00
2017-07-27T23:39:53.952Z,97.40
2017-07-27T23:42:21.614Z,97.40
2017-07-27T23:44:49.235Z,97.70
2017-07-27T23:47:16.932Z,97.90
2017-07-27T23:49:45.318Z,99.90
2017-07-27T23:52:12.953Z,99.90
2017-07-27T23:54:40.612Z,99.90
2017-07-27T23:57:08.241Z,99.90
2017-07-27T23:59:35.908Z,99.90
